Mill Rose Farm Restricted Landing Area

Jump to: basic info | weather | runways | comments

Related pages: nearby airports | nearby navaids | notams | map

Basic information (top)

Codes: IL68
Location: lon 42.077202, lat -88.159798, elev 850 ft / 259 m msl
Status: small_airport

Weather (top)

Current conditions for Dupage Airport 11nm (20km) SSW (rec'd 2015/01/30 22:52Z):

KDPA 302252Z 28006KT 10SM CLR M03/M11 A3042 RMK AO2 SLP313 T10331111

Airport forecast for Dupage Airport 11nm (20km) SSW (rec'd 2015/01/30 18:30Z):

TAF KDPA 301727Z 3018/3118 32007KT P6SM FEW160 
     FM302000 24006KT P6SM FEW150 
     FM311500 23010KT P6SM FEW150 BKN250 
     FM311700 25009KT P6SM BKN040 BKN150

Runways (top)

N/S: 2,500 x 100 ft (762 x 30 m) — grass — lighted

Latest comments (top)

No comments yet for Mill Rose Farm Restricted Landing Area

More... (top)

See also NOTAMs and nearby airports and navaids, or visit the Mill Rose Farm Restricted Landing Area page at the main OurAirports website..